createdAt,value
2019-01-09T00:00:34.080Z,69.59
2019-01-09T00:05:37.156Z,70.12
2019-01-09T00:10:39.301Z,70.83
2019-01-09T00:15:43.995Z,71.53
2019-01-09T00:20:47.596Z,70.98
2019-01-09T00:25:50.111Z,71.10
2019-01-09T00:30:53.013Z,71.14
2019-01-09T00:35:55.641Z,70.96
2019-01-09T00:40:58.324Z,71.02
2019-01-09T00:46:01.234Z,70.95
2019-01-09T00:51:08.857Z,71.13
2019-01-09T00:56:11.572Z,71.07
2019-01-09T01:01:14.096Z,71.03
2019-01-09T01:06:57.075Z,71.25
2019-01-09T01:12:43.388Z,71.17
2019-01-09T01:18:09.551Z,70.67
2019-01-09T01:24:02.951Z,70.15
2019-01-09T01:30:05.640Z,70.76
2019-01-09T01:35:56.437Z,70.18
2019-01-09T01:41:05.480Z,69.89
2019-01-09T01:46:15.937Z,70.02
2019-01-09T01:51:53.909Z,69.80
2019-01-09T01:57:46.378Z,69.92
2019-01-09T02:03:42.055Z,70.01
2019-01-09T02:09:11.749Z,69.75
2019-01-09T02:15:01.038Z,69.61
2019-01-09T02:20:27.709Z,69.36
2019-01-09T02:26:20.672Z,69.32
2019-01-09T02:31:43.877Z,69.59
2019-01-09T02:36:46.947Z,69.51
2019-01-09T02:41:49.873Z,69.29
2019-01-09T02:46:52.703Z,69.38
2019-01-09T02:51:55.773Z,70.03
2019-01-09T02:56:58.165Z,69.37
2019-01-09T03:02:01.245Z,70.04
2019-01-09T03:07:04.490Z,69.71
2019-01-09T03:12:07.077Z,70.86
2019-01-09T03:17:09.271Z,70.96
2019-01-09T03:22:11.820Z,69.81
2019-01-09T03:27:14.692Z,69.90
2019-01-09T03:32:17.975Z,69.89
2019-01-09T03:37:20.372Z,70.14
2019-01-09T03:42:22.962Z,69.94
2019-01-09T03:47:25.851Z,70.45
2019-01-09T03:52:28.791Z,71.35
2019-01-09T03:57:31.496Z,71.01
2019-01-09T04:02:33.674Z,70.58
2019-01-09T04:07:36.345Z,70.73
2019-01-09T04:12:39.313Z,70.38
2019-01-09T04:17:41.633Z,70.79
2019-01-09T04:22:44.544Z,70.53
2019-01-09T04:27:48.902Z,70.48
2019-01-09T04:32:51.780Z,70.19
2019-01-09T04:37:54.772Z,70.31
2019-01-09T04:43:03.924Z,71.05
2019-01-09T04:48:07.154Z,70.98
2019-01-09T04:53:09.734Z,71.09
2019-01-09T04:58:12.131Z,71.21
2019-01-09T05:03:14.937Z,71.17
2019-01-09T05:08:17.735Z,71.16
2019-01-09T05:13:20.084Z,70.81
2019-01-09T05:18:22.821Z,70.72
2019-01-09T05:23:25.417Z,70.91
2019-01-09T05:28:27.988Z,71.26
2019-01-09T05:33:31.007Z,70.95
2019-01-09T05:38:33.590Z,70.71
2019-01-09T05:43:36.499Z,71.09
2019-01-09T05:48:38.911Z,71.55
2019-01-09T05:53:41.798Z,71.34
2019-01-09T05:58:44.433Z,70.73
2019-01-09T06:03:46.483Z,69.51
2019-01-09T06:08:49.117Z,68.07
2019-01-09T06:13:51.852Z,69.01
2019-01-09T06:18:54.883Z,68.61
2019-01-09T06:23:57.777Z,67.83
2019-01-09T06:29:00.173Z,67.97
2019-01-09T06:34:02.669Z,67.54
2019-01-09T06:39:06.302Z,67.22
2019-01-09T06:44:08.460Z,67.56
2019-01-09T06:49:11.381Z,68.10
2019-01-09T06:54:14.127Z,66.80
2019-01-09T06:59:16.983Z,67.96
2019-01-09T07:04:19.627Z,67.54
2019-01-09T07:09:22.071Z,67.87
2019-01-09T07:14:24.569Z,68.98
2019-01-09T07:19:27.603Z,71.16
2019-01-09T07:24:29.663Z,69.91
2019-01-09T07:29:32.456Z,73.11
2019-01-09T07:34:34.630Z,72.08
2019-01-09T07:39:37.317Z,71.87
2019-01-09T07:44:40.319Z,69.94
2019-01-09T07:49:43.344Z,69.22
2019-01-09T07:54:45.964Z,68.49
2019-01-09T07:59:48.728Z,69.24
2019-01-09T08:04:50.788Z,71.10
2019-01-09T08:09:54.229Z,71.50
2019-01-09T08:14:56.972Z,72.19
2019-01-09T08:19:59.214Z,72.52
2019-01-09T08:25:02.348Z,70.64
2019-01-09T08:30:06.455Z,71.43
2019-01-09T08:35:09.490Z,72.97
2019-01-09T08:40:11.655Z,72.66
2019-01-09T08:45:14.141Z,72.63
2019-01-09T08:50:16.949Z,71.70
2019-01-09T08:55:19.780Z,73.22
2019-01-09T09:00:22.769Z,71.77
2019-01-09T09:05:25.063Z,72.24
2019-01-09T09:10:28.170Z,72.08
2019-01-09T09:15:30.238Z,70.00
2019-01-09T09:20:32.921Z,70.40
2019-01-09T09:25:35.695Z,70.42
2019-01-09T09:30:38.521Z,70.55
2019-01-09T09:35:41.304Z,70.63
2019-01-09T09:40:44.133Z,70.55
2019-01-09T09:45:46.501Z,70.74
2019-01-09T09:50:49.322Z,71.26
2019-01-09T09:55:52.161Z,70.94
2019-01-09T10:00:55.552Z,71.04
2019-01-09T10:05:58.565Z,71.71
2019-01-09T10:11:01.482Z,72.02
2019-01-09T10:16:04.179Z,71.18
2019-01-09T10:21:07.152Z,70.61
2019-01-09T10:26:09.923Z,69.29
2019-01-09T10:31:12.857Z,70.41
2019-01-09T10:36:15.428Z,70.73
2019-01-09T10:41:17.953Z,72.03
2019-01-09T10:46:20.443Z,71.86
2019-01-09T10:51:23.144Z,71.11
2019-01-09T10:56:26.082Z,71.27
2019-01-09T11:01:28.870Z,71.52
2019-01-09T11:06:31.825Z,70.76
2019-01-09T11:11:34.611Z,70.80
2019-01-09T11:16:37.249Z,70.26
2019-01-09T11:21:39.734Z,71.48
2019-01-09T11:26:42.194Z,71.22
2019-01-09T11:31:45.139Z,69.47
2019-01-09T11:36:48.211Z,69.10
2019-01-09T11:41:50.321Z,69.99
2019-01-09T11:46:53.527Z,69.55
2019-01-09T11:51:56.427Z,70.04
2019-01-09T11:56:59.345Z,69.41
2019-01-09T12:02:02.730Z,69.32
2019-01-09T12:07:05.716Z,69.71
2019-01-09T12:12:08.458Z,69.70
2019-01-09T12:17:11.050Z,70.38
2019-01-09T12:22:13.990Z,70.83
2019-01-09T12:27:17.917Z,70.06
2019-01-09T12:32:21.892Z,69.87
2019-01-09T12:37:25.118Z,71.51
2019-01-09T12:42:27.802Z,70.22
2019-01-09T12:47:30.426Z,70.27
2019-01-09T12:52:33.528Z,69.56
2019-01-09T12:57:36.189Z,69.71
2019-01-09T13:02:38.886Z,69.71
2019-01-09T13:07:41.502Z,70.00
2019-01-09T13:12:44.106Z,68.09
2019-01-09T13:17:46.831Z,69.20
2019-01-09T13:22:49.816Z,68.95
2019-01-09T13:27:53.036Z,68.50
2019-01-09T13:32:56.212Z,69.64
2019-01-09T13:37:58.841Z,70.33
2019-01-09T13:43:01.725Z,71.36
2019-01-09T13:48:04.129Z,70.88
2019-01-09T13:53:06.610Z,71.45
2019-01-09T13:58:09.376Z,70.52
2019-01-09T14:03:12.152Z,70.40
2019-01-09T14:08:14.939Z,70.25
2019-01-09T14:13:17.605Z,69.78
2019-01-09T14:18:20.008Z,69.48
2019-01-09T14:23:22.408Z,69.48
2019-01-09T14:28:25.226Z,69.93
2019-01-09T14:33:27.984Z,70.05
2019-01-09T14:38:30.545Z,70.36
2019-01-09T14:43:33.502Z,69.64
2019-01-09T14:48:36.335Z,70.17
2019-01-09T14:53:39.122Z,71.16
2019-01-09T14:58:41.872Z,72.29
2019-01-09T15:03:44.905Z,72.17
2019-01-09T15:08:49.746Z,70.78
2019-01-09T15:13:54.590Z,70.21
2019-01-09T15:18:57.603Z,69.68
2019-01-09T15:24:08.173Z,70.43
2019-01-09T15:29:05.104Z,71.14
2019-01-09T15:34:07.874Z,71.47
2019-01-09T15:39:10.435Z,71.01
2019-01-09T15:44:13.453Z,70.63
2019-01-09T15:49:16.152Z,70.56
2019-01-09T15:54:19.005Z,69.49
2019-01-09T15:59:21.839Z,68.13
2019-01-09T16:04:24.544Z,68.15
2019-01-09T16:09:27.027Z,68.25
2019-01-09T16:14:29.777Z,69.11
2019-01-09T16:19:32.206Z,69.48
2019-01-09T16:24:35.341Z,68.88
2019-01-09T16:29:38.232Z,68.84
2019-01-09T16:34:41.416Z,68.25
2019-01-09T16:39:44.462Z,68.83
2019-01-09T16:44:46.949Z,68.97
2019-01-09T16:49:49.971Z,69.73
2019-01-09T16:54:52.235Z,70.22
2019-01-09T16:59:55.030Z,68.63
2019-01-09T17:04:57.838Z,69.14
2019-01-09T17:10:00.944Z,69.36
2019-01-09T17:15:05.037Z,69.25
2019-01-09T17:20:10.412Z,69.54
2019-01-09T17:25:13.881Z,69.75
2019-01-09T17:30:21.766Z,70.22
2019-01-09T17:35:24.578Z,70.47
2019-01-09T17:40:27.177Z,70.18
2019-01-09T17:45:29.956Z,69.62
2019-01-09T17:50:34.159Z,69.38
2019-01-09T17:55:36.912Z,69.35
2019-01-09T18:00:41.326Z,69.99
2019-01-09T18:05:43.731Z,70.21
2019-01-09T18:10:50.326Z,70.12
2019-01-09T18:15:51.130Z,70.58
2019-01-09T18:20:53.927Z,70.36
2019-01-09T18:25:56.131Z,71.01
2019-01-09T18:31:36.865Z,71.49
2019-01-09T18:36:52.950Z,71.26
2019-01-09T18:42:13.331Z,70.48
2019-01-09T18:48:19.560Z,71.36
2019-01-09T18:53:29.529Z,70.87
2019-01-09T18:58:32.479Z,72.45
2019-01-09T19:03:35.674Z,73.36
2019-01-09T19:08:38.655Z,74.00
2019-01-09T19:13:41.521Z,73.92
2019-01-09T19:18:44.820Z,73.70
2019-01-09T19:23:47.687Z,74.49
2019-01-09T19:28:51.552Z,73.80
2019-01-09T19:33:55.066Z,74.35
2019-01-09T19:38:58.232Z,73.97
2019-01-09T19:44:01.634Z,74.02
2019-01-09T19:49:05.837Z,73.51
2019-01-09T19:54:08.686Z,73.83
2019-01-09T19:59:12.180Z,74.27
2019-01-09T20:04:17.361Z,74.53
2019-01-09T20:09:20.599Z,74.29
2019-01-09T20:14:24.386Z,73.57
2019-01-09T20:19:30.573Z,73.82
2019-01-09T20:24:34.232Z,74.37
2019-01-09T20:29:38.859Z,74.38
2019-01-09T20:34:42.577Z,73.56
2019-01-09T20:39:46.153Z,73.49
2019-01-09T20:44:49.140Z,73.80
2019-01-09T20:49:52.790Z,74.26
2019-01-09T20:54:55.491Z,73.54
2019-01-09T20:59:58.617Z,74.21
2019-01-09T21:05:01.739Z,73.99
2019-01-09T21:10:06.298Z,72.83
2019-01-09T21:15:11.114Z,72.78
2019-01-09T21:20:16.248Z,73.11
2019-01-09T21:25:19.967Z,72.81
2019-01-09T21:30:23.751Z,72.69
2019-01-09T21:35:26.281Z,73.18
2019-01-09T21:40:30.013Z,72.57
2019-01-09T21:45:32.905Z,72.62
2019-01-09T21:50:35.608Z,72.62
2019-01-09T21:55:38.390Z,72.60
2019-01-09T22:00:41.557Z,72.54
2019-01-09T22:05:44.445Z,72.85
2019-01-09T22:10:47.283Z,72.90
2019-01-09T22:15:49.812Z,73.32
2019-01-09T22:20:52.289Z,74.13
2019-01-09T22:25:55.105Z,74.32
2019-01-09T22:30:58.012Z,74.01
2019-01-09T22:36:00.409Z,74.31
2019-01-09T22:41:03.576Z,73.07
2019-01-09T22:46:06.204Z,71.90
2019-01-09T22:51:09.104Z,70.47
2019-01-09T22:56:12.267Z,70.85
2019-01-09T23:01:23.449Z,70.14
2019-01-09T23:06:26.181Z,70.18
2019-01-09T23:11:29.008Z,70.78
2019-01-09T23:16:31.813Z,70.99
2019-01-09T23:21:34.481Z,71.79
2019-01-09T23:26:36.675Z,73.15
2019-01-09T23:31:39.470Z,72.95
2019-01-09T23:36:42.283Z,74.08
2019-01-09T23:41:44.780Z,74.09
2019-01-09T23:46:48.113Z,73.92
2019-01-09T23:51:50.966Z,73.98
2019-01-09T23:56:53.996Z,73.80
